Terminal Aerodrome Forecast
Issued by NWS

Home | Current Version | Previous Version | Text Only | Print | Product List | Glossary On
Versions: 1 2 3 4 5 6 7 8 9 10 11 12 13 14 15 16 17
000
FTUS45 KGJT 071331 AAB
TAFTEX
TAF AMD
KTEX 071331Z 0714/0812 13005KT P6SM VCSH SCT022 BKN040
     FM071800 27007KT P6SM FEW040 SCT080
     FM080200 12003KT P6SM SCT200=

USA.gov is the U.S. government's official web portal to all federal, state and local government web resources and services.